sensor_id;sensor_type;location;lat;lon;timestamp;temperature;humidity
46490;DHT22;32204;49.160;8.580;2024-02-28T00:02:06;7.70;99.90
46490;DHT22;32204;49.160;8.580;2024-02-28T00:04:32;7.70;99.90
46490;DHT22;32204;49.160;8.580;2024-02-28T00:06:57;7.60;1.00
46490;DHT22;32204;49.160;8.580;2024-02-28T00:09:24;7.60;1.00
46490;DHT22;32204;49.160;8.580;2024-02-28T00:11:49;7.60;1.00
46490;DHT22;32204;49.160;8.580;2024-02-28T00:14:15;7.60;99.90
46490;DHT22;32204;49.160;8.580;2024-02-28T00:16:45;7.50;99.90
46490;DHT22;32204;49.160;8.580;2024-02-28T00:19:11;7.30;99.90
46490;DHT22;32204;49.160;8.580;2024-02-28T00:21:40;7.20;99.90
46490;DHT22;32204;49.160;8.580;2024-02-28T00:24:07;7.30;99.90
46490;DHT22;32204;49.160;8.580;2024-02-28T00:26:32;7.20;33.30
46490;DHT22;32204;49.160;8.580;2024-02-28T00:28:58;7.20;99.90
46490;DHT22;32204;49.160;8.580;2024-02-28T00:31:24;7.10;99.90
46490;DHT22;32204;49.160;8.580;2024-02-28T00:33:49;7.00;99.90
46490;DHT22;32204;49.160;8.580;2024-02-28T00:36:15;7.10;99.90
46490;DHT22;32204;49.160;8.580;2024-02-28T00:38:41;7.00;1.00
46490;DHT22;32204;49.160;8.580;2024-02-28T00:41:07;7.00;1.00
46490;DHT22;32204;49.160;8.580;2024-02-28T00:43:32;7.00;99.90
46490;DHT22;32204;49.160;8.580;2024-02-28T00:45:58;7.00;99.90
46490;DHT22;32204;49.160;8.580;2024-02-28T00:48:25;6.90;99.90
46490;DHT22;32204;49.160;8.580;2024-02-28T00:50:50;6.90;1.00
46490;DHT22;32204;49.160;8.580;2024-02-28T00:53:17;7.00;1.00
46490;DHT22;32204;49.160;8.580;2024-02-28T00:55:43;7.00;1.00
46490;DHT22;32204;49.160;8.580;2024-02-28T00:58:08;6.90;1.00
46490;DHT22;32204;49.160;8.580;2024-02-28T01:00:34;6.80;99.90
46490;DHT22;32204;49.160;8.580;2024-02-28T01:03:00;6.70;1.00
46490;DHT22;32204;49.160;8.580;2024-02-28T01:05:29;6.70;99.90
46490;DHT22;32204;49.160;8.580;2024-02-28T01:07:54;6.70;99.90
46490;DHT22;32204;49.160;8.580;2024-02-28T01:10:20;6.60;1.00
46490;DHT22;32204;49.160;8.580;2024-02-28T01:12:46;6.60;99.90
46490;DHT22;32204;49.160;8.580;2024-02-28T01:15:12;6.60;99.90
46490;DHT22;32204;49.160;8.580;2024-02-28T01:17:38;6.60;99.90
46490;DHT22;32204;49.160;8.580;2024-02-28T01:20:05;6.50;99.90
46490;DHT22;32204;49.160;8.580;2024-02-28T01:22:32;6.40;1.00
46490;DHT22;32204;49.160;8.580;2024-02-28T01:24:58;6.40;1.00
46490;DHT22;32204;49.160;8.580;2024-02-28T01:27:23;6.30;99.90
46490;DHT22;32204;49.160;8.580;2024-02-28T01:29:49;6.40;99.90
46490;DHT22;32204;49.160;8.580;2024-02-28T01:32:14;6.30;1.00
46490;DHT22;32204;49.160;8.580;2024-02-28T01:34:40;6.10;99.90
46490;DHT22;32204;49.160;8.580;2024-02-28T01:37:06;6.00;44.20
46490;DHT22;32204;49.160;8.580;2024-02-28T01:39:31;5.90;99.90
46490;DHT22;32204;49.160;8.580;2024-02-28T01:41:57;5.90;99.90
46490;DHT22;32204;49.160;8.580;2024-02-28T01:44:22;5.90;99.90
46490;DHT22;32204;49.160;8.580;2024-02-28T01:46:48;6.00;99.90
46490;DHT22;32204;49.160;8.580;2024-02-28T01:49:14;6.00;99.90
46490;DHT22;32204;49.160;8.580;2024-02-28T01:51:41;5.90;99.90
46490;DHT22;32204;49.160;8.580;2024-02-28T01:54:08;5.80;1.00
46490;DHT22;32204;49.160;8.580;2024-02-28T01:56:34;5.70;99.90
46490;DHT22;32204;49.160;8.580;2024-02-28T01:59:00;5.80;1.00
46490;DHT22;32204;49.160;8.580;2024-02-28T02:01:27;5.80;97.20
46490;DHT22;32204;49.160;8.580;2024-02-28T02:03:54;5.90;1.00
46490;DHT22;32204;49.160;8.580;2024-02-28T02:06:20;5.90;99.90
46490;DHT22;32204;49.160;8.580;2024-02-28T02:08:46;5.90;99.90
46490;DHT22;32204;49.160;8.580;2024-02-28T02:11:14;5.90;99.90
46490;DHT22;32204;49.160;8.580;2024-02-28T02:13:50;5.90;99.90
46490;DHT22;32204;49.160;8.580;2024-02-28T02:16:16;5.90;1.00
46490;DHT22;32204;49.160;8.580;2024-02-28T02:18:42;5.80;99.90
46490;DHT22;32204;49.160;8.580;2024-02-28T02:21:09;5.70;99.90
46490;DHT22;32204;49.160;8.580;2024-02-28T02:23:36;5.70;99.90
46490;DHT22;32204;49.160;8.580;2024-02-28T02:26:06;5.60;99.90
46490;DHT22;32204;49.160;8.580;2024-02-28T02:28:32;5.50;1.00
46490;DHT22;32204;49.160;8.580;2024-02-28T02:30:58;5.50;99.90
46490;DHT22;32204;49.160;8.580;2024-02-28T02:33:23;5.60;99.90
46490;DHT22;32204;49.160;8.580;2024-02-28T02:35:49;5.60;5.10
46490;DHT22;32204;49.160;8.580;2024-02-28T02:38:15;5.60;1.00
46490;DHT22;32204;49.160;8.580;2024-02-28T02:40:41;5.60;1.00
46490;DHT22;32204;49.160;8.580;2024-02-28T02:43:06;5.70;99.90
46490;DHT22;32204;49.160;8.580;2024-02-28T02:45:32;5.60;1.00
46490;DHT22;32204;49.160;8.580;2024-02-28T02:47:57;5.60;1.00
46490;DHT22;32204;49.160;8.580;2024-02-28T02:50:23;5.60;99.90
46490;DHT22;32204;49.160;8.580;2024-02-28T02:52:48;5.50;27.50
46490;DHT22;32204;49.160;8.580;2024-02-28T02:55:14;5.50;99.90
46490;DHT22;32204;49.160;8.580;2024-02-28T02:57:40;5.50;99.90
46490;DHT22;32204;49.160;8.580;2024-02-28T03:00:08;5.50;50.60
46490;DHT22;32204;49.160;8.580;2024-02-28T03:02:35;5.50;1.00
46490;DHT22;32204;49.160;8.580;2024-02-28T03:05:04;5.60;1.00
46490;DHT22;32204;49.160;8.580;2024-02-28T03:07:29;5.60;1.00
46490;DHT22;32204;49.160;8.580;2024-02-28T03:09:55;5.70;1.00
46490;DHT22;32204;49.160;8.580;2024-02-28T03:12:21;5.50;99.90
46490;DHT22;32204;49.160;8.580;2024-02-28T03:14:50;5.40;45.50
46490;DHT22;32204;49.160;8.580;2024-02-28T03:17:15;5.30;99.90
46490;DHT22;32204;49.160;8.580;2024-02-28T03:19:44;5.30;99.90
46490;DHT22;32204;49.160;8.580;2024-02-28T03:22:09;5.30;1.00
46490;DHT22;32204;49.160;8.580;2024-02-28T03:24:35;5.30;99.90
46490;DHT22;32204;49.160;8.580;2024-02-28T03:27:03;5.30;99.90
46490;DHT22;32204;49.160;8.580;2024-02-28T03:29:29;5.30;99.90
46490;DHT22;32204;49.160;8.580;2024-02-28T03:31:55;5.30;1.00
46490;DHT22;32204;49.160;8.580;2024-02-28T03:34:21;5.50;1.00
46490;DHT22;32204;49.160;8.580;2024-02-28T03:36:46;5.50;99.90
46490;DHT22;32204;49.160;8.580;2024-02-28T03:39:12;5.50;99.90
46490;DHT22;32204;49.160;8.580;2024-02-28T03:41:38;5.30;99.90
46490;DHT22;32204;49.160;8.580;2024-02-28T03:44:04;5.00;99.90
46490;DHT22;32204;49.160;8.580;2024-02-28T03:46:30;4.90;1.00
46490;DHT22;32204;49.160;8.580;2024-02-28T03:48:56;4.80;1.00
46490;DHT22;32204;49.160;8.580;2024-02-28T03:51:21;4.90;76.20
46490;DHT22;32204;49.160;8.580;2024-02-28T03:53:47;4.90;99.90
46490;DHT22;32204;49.160;8.580;2024-02-28T03:56:13;4.90;1.00
46490;DHT22;32204;49.160;8.580;2024-02-28T03:58:39;4.90;99.90
46490;DHT22;32204;49.160;8.580;2024-02-28T04:01:05;4.70;1.00
46490;DHT22;32204;49.160;8.580;2024-02-28T04:03:31;4.50;99.90
46490;DHT22;32204;49.160;8.580;2024-02-28T04:05:57;4.40;99.90
46490;DHT22;32204;49.160;8.580;2024-02-28T04:08:22;4.40;99.90
46490;DHT22;32204;49.160;8.580;2024-02-28T04:10:48;4.50;99.90
46490;DHT22;32204;49.160;8.580;2024-02-28T04:13:15;4.50;1.00
46490;DHT22;32204;49.160;8.580;2024-02-28T04:15:41;4.60;99.90
46490;DHT22;32204;49.160;8.580;2024-02-28T04:18:06;4.70;35.70
46490;DHT22;32204;49.160;8.580;2024-02-28T04:20:32;4.60;99.90
46490;DHT22;32204;49.160;8.580;2024-02-28T04:22:58;4.50;99.90
46490;DHT22;32204;49.160;8.580;2024-02-28T04:25:23;4.50;1.00
46490;DHT22;32204;49.160;8.580;2024-02-28T04:27:49;4.50;99.90
46490;DHT22;32204;49.160;8.580;2024-02-28T04:30:15;4.50;99.90
46490;DHT22;32204;49.160;8.580;2024-02-28T04:32:41;4.50;99.90
46490;DHT22;32204;49.160;8.580;2024-02-28T04:35:06;4.60;99.90
46490;DHT22;32204;49.160;8.580;2024-02-28T04:37:32;4.60;1.00
46490;DHT22;32204;49.160;8.580;2024-02-28T04:40:00;4.70;1.00
46490;DHT22;32204;49.160;8.580;2024-02-28T04:42:25;4.60;1.00
46490;DHT22;32204;49.160;8.580;2024-02-28T04:44:51;4.60;99.90
46490;DHT22;32204;49.160;8.580;2024-02-28T04:47:16;4.60;99.90
46490;DHT22;32204;49.160;8.580;2024-02-28T04:49:42;4.60;99.90
46490;DHT22;32204;49.160;8.580;2024-02-28T04:52:08;4.70;1.00
46490;DHT22;32204;49.160;8.580;2024-02-28T04:54:33;4.70;99.90
46490;DHT22;32204;49.160;8.580;2024-02-28T04:56:59;4.70;99.90
46490;DHT22;32204;49.160;8.580;2024-02-28T04:59:25;4.80;99.90
46490;DHT22;32204;49.160;8.580;2024-02-28T05:01:51;4.70;99.90
46490;DHT22;32204;49.160;8.580;2024-02-28T05:04:17;4.60;99.90
46490;DHT22;32204;49.160;8.580;2024-02-28T05:06:43;4.50;99.90
46490;DHT22;32204;49.160;8.580;2024-02-28T05:09:08;4.50;99.90
46490;DHT22;32204;49.160;8.580;2024-02-28T05:11:34;4.40;99.90
46490;DHT22;32204;49.160;8.580;2024-02-28T05:14:00;4.40;1.00
46490;DHT22;32204;49.160;8.580;2024-02-28T05:16:26;4.40;99.90
46490;DHT22;32204;49.160;8.580;2024-02-28T05:18:51;4.40;1.00
46490;DHT22;32204;49.160;8.580;2024-02-28T05:21:17;4.40;1.00
46490;DHT22;32204;49.160;8.580;2024-02-28T05:23:43;4.50;30.50
46490;DHT22;32204;49.160;8.580;2024-02-28T05:26:08;4.50;99.90
46490;DHT22;32204;49.160;8.580;2024-02-28T05:28:37;4.50;99.90
46490;DHT22;32204;49.160;8.580;2024-02-28T05:31:24;4.40;99.90
46490;DHT22;32204;49.160;8.580;2024-02-28T05:33:56;4.30;1.00
46490;DHT22;32204;49.160;8.580;2024-02-28T05:36:23;4.00;99.90
46490;DHT22;32204;49.160;8.580;2024-02-28T05:38:49;3.90;1.00
46490;DHT22;32204;49.160;8.580;2024-02-28T05:41:19;3.70;1.00
46490;DHT22;32204;49.160;8.580;2024-02-28T05:43:44;3.60;99.90
46490;DHT22;32204;49.160;8.580;2024-02-28T05:46:11;3.50;45.50
46490;DHT22;32204;49.160;8.580;2024-02-28T05:48:37;3.50;1.00
46490;DHT22;32204;49.160;8.580;2024-02-28T05:51:03;3.40;18.80
46490;DHT22;32204;49.160;8.580;2024-02-28T05:53:29;3.30;99.90
46490;DHT22;32204;49.160;8.580;2024-02-28T05:56:04;3.40;1.00
46490;DHT22;32204;49.160;8.580;2024-02-28T05:58:29;3.50;99.90
46490;DHT22;32204;49.160;8.580;2024-02-28T06:00:55;3.70;99.90
46490;DHT22;32204;49.160;8.580;2024-02-28T06:03:20;3.80;15.20
46490;DHT22;32204;49.160;8.580;2024-02-28T06:05:46;3.80;1.00
46490;DHT22;32204;49.160;8.580;2024-02-28T06:08:12;4.00;99.90
46490;DHT22;32204;49.160;8.580;2024-02-28T06:10:38;4.20;99.90
46490;DHT22;32204;49.160;8.580;2024-02-28T06:13:04;4.30;99.90
46490;DHT22;32204;49.160;8.580;2024-02-28T06:15:29;4.30;1.00
46490;DHT22;32204;49.160;8.580;2024-02-28T06:17:59;4.10;99.90
46490;DHT22;32204;49.160;8.580;2024-02-28T06:20:26;4.00;1.00
46490;DHT22;32204;49.160;8.580;2024-02-28T06:22:52;4.00;99.90
46490;DHT22;32204;49.160;8.580;2024-02-28T06:25:18;4.00;1.00
46490;DHT22;32204;49.160;8.580;2024-02-28T06:27:45;3.80;1.00
46490;DHT22;32204;49.160;8.580;2024-02-28T06:30:11;3.60;1.00
46490;DHT22;32204;49.160;8.580;2024-02-28T06:32:40;3.70;99.90
46490;DHT22;32204;49.160;8.580;2024-02-28T06:35:07;3.80;99.90
46490;DHT22;32204;49.160;8.580;2024-02-28T06:37:33;3.90;99.90
46490;DHT22;32204;49.160;8.580;2024-02-28T06:39:59;4.00;99.90
46490;DHT22;32204;49.160;8.580;2024-02-28T06:42:24;4.10;99.90
46490;DHT22;32204;49.160;8.580;2024-02-28T06:44:50;4.20;99.90
46490;DHT22;32204;49.160;8.580;2024-02-28T06:47:16;4.30;99.90
46490;DHT22;32204;49.160;8.580;2024-02-28T06:49:41;4.30;1.00
46490;DHT22;32204;49.160;8.580;2024-02-28T06:52:07;4.40;95.20
46490;DHT22;32204;49.160;8.580;2024-02-28T06:54:33;4.50;46.40
46490;DHT22;32204;49.160;8.580;2024-02-28T06:56:58;4.60;1.00
46490;DHT22;32204;49.160;8.580;2024-02-28T06:59:24;4.80;1.00
46490;DHT22;32204;49.160;8.580;2024-02-28T07:01:49;4.90;99.90
46490;DHT22;32204;49.160;8.580;2024-02-28T07:04:15;4.90;1.00
46490;DHT22;32204;49.160;8.580;2024-02-28T07:06:41;4.70;99.90
46490;DHT22;32204;49.160;8.580;2024-02-28T07:09:10;4.70;34.00
46490;DHT22;32204;49.160;8.580;2024-02-28T07:11:37;4.60;99.90
46490;DHT22;32204;49.160;8.580;2024-02-28T07:14:03;4.60;99.90
46490;DHT22;32204;49.160;8.580;2024-02-28T07:16:30;4.50;1.00
46490;DHT22;32204;49.160;8.580;2024-02-28T07:18:55;4.60;99.90
46490;DHT22;32204;49.160;8.580;2024-02-28T07:21:21;4.60;99.90
46490;DHT22;32204;49.160;8.580;2024-02-28T07:23:46;4.60;15.60
46490;DHT22;32204;49.160;8.580;2024-02-28T07:26:16;4.70;1.00
46490;DHT22;32204;49.160;8.580;2024-02-28T07:28:41;4.90;1.00
46490;DHT22;32204;49.160;8.580;2024-02-28T07:31:13;5.00;1.00
46490;DHT22;32204;49.160;8.580;2024-02-28T07:33:40;5.20;99.90
46490;DHT22;32204;49.160;8.580;2024-02-28T07:36:05;5.30;1.00
46490;DHT22;32204;49.160;8.580;2024-02-28T07:38:31;5.20;94.10
46490;DHT22;32204;49.160;8.580;2024-02-28T07:40:57;5.10;99.90
46490;DHT22;32204;49.160;8.580;2024-02-28T07:43:22;4.90;1.00
46490;DHT22;32204;49.160;8.580;2024-02-28T07:45:48;5.10;99.90
46490;DHT22;32204;49.160;8.580;2024-02-28T07:48:13;5.30;99.90
46490;DHT22;32204;49.160;8.580;2024-02-28T07:50:39;5.50;15.80
46490;DHT22;32204;49.160;8.580;2024-02-28T07:53:07;5.70;32.90
46490;DHT22;32204;49.160;8.580;2024-02-28T07:55:32;5.80;49.20
46490;DHT22;32204;49.160;8.580;2024-02-28T07:57:58;5.90;1.00
46490;DHT22;32204;49.160;8.580;2024-02-28T08:00:24;6.00;99.90
46490;DHT22;32204;49.160;8.580;2024-02-28T08:02:50;6.10;1.00
46490;DHT22;32204;49.160;8.580;2024-02-28T08:05:16;6.20;99.90
46490;DHT22;32204;49.160;8.580;2024-02-28T08:07:43;6.20;99.90
46490;DHT22;32204;49.160;8.580;2024-02-28T08:10:09;6.00;1.00
46490;DHT22;32204;49.160;8.580;2024-02-28T08:12:36;6.00;99.90
46490;DHT22;32204;49.160;8.580;2024-02-28T08:15:02;6.00;99.90
46490;DHT22;32204;49.160;8.580;2024-02-28T08:17:28;5.80;1.00
46490;DHT22;32204;49.160;8.580;2024-02-28T08:19:54;5.70;99.90
46490;DHT22;32204;49.160;8.580;2024-02-28T08:22:20;5.70;99.90
46490;DHT22;32204;49.160;8.580;2024-02-28T08:24:45;5.80;1.00
46490;DHT22;32204;49.160;8.580;2024-02-28T08:27:11;5.90;99.90
46490;DHT22;32204;49.160;8.580;2024-02-28T08:29:40;6.10;99.90
46490;DHT22;32204;49.160;8.580;2024-02-28T08:32:09;6.20;99.90
46490;DHT22;32204;49.160;8.580;2024-02-28T08:34:35;6.00;1.00
46490;DHT22;32204;49.160;8.580;2024-02-28T08:37:01;5.90;1.00
46490;DHT22;32204;49.160;8.580;2024-02-28T08:39:26;6.00;1.00
46490;DHT22;32204;49.160;8.580;2024-02-28T08:41:52;6.30;1.00
46490;DHT22;32204;49.160;8.580;2024-02-28T08:44:17;6.40;99.90
46490;DHT22;32204;49.160;8.580;2024-02-28T08:46:43;6.60;99.90
46490;DHT22;32204;49.160;8.580;2024-02-28T08:49:09;6.80;1.00
46490;DHT22;32204;49.160;8.580;2024-02-28T08:51:34;6.80;1.00
46490;DHT22;32204;49.160;8.580;2024-02-28T08:54:00;6.80;99.90
46490;DHT22;32204;49.160;8.580;2024-02-28T08:56:25;6.80;1.00
46490;DHT22;32204;49.160;8.580;2024-02-28T08:58:51;6.70;99.90
46490;DHT22;32204;49.160;8.580;2024-02-28T09:01:17;6.70;99.90
46490;DHT22;32204;49.160;8.580;2024-02-28T09:03:43;7.00;99.90
46490;DHT22;32204;49.160;8.580;2024-02-28T09:06:08;7.10;99.90
46490;DHT22;32204;49.160;8.580;2024-02-28T09:08:34;7.00;99.90
46490;DHT22;32204;49.160;8.580;2024-02-28T09:10:59;7.10;1.00
46490;DHT22;32204;49.160;8.580;2024-02-28T09:13:27;7.20;99.90
46490;DHT22;32204;49.160;8.580;2024-02-28T09:15:53;7.30;99.90
46490;DHT22;32204;49.160;8.580;2024-02-28T09:18:18;7.30;99.90
46490;DHT22;32204;49.160;8.580;2024-02-28T09:20:44;7.40;99.90
46490;DHT22;32204;49.160;8.580;2024-02-28T09:23:09;7.40;1.00
46490;DHT22;32204;49.160;8.580;2024-02-28T09:25:35;7.40;1.00
46490;DHT22;32204;49.160;8.580;2024-02-28T09:28:02;7.50;22.80
46490;DHT22;32204;49.160;8.580;2024-02-28T09:30:28;7.60;99.90
46490;DHT22;32204;49.160;8.580;2024-02-28T09:32:53;7.60;99.90
46490;DHT22;32204;49.160;8.580;2024-02-28T09:35:19;7.50;99.90
46490;DHT22;32204;49.160;8.580;2024-02-28T09:37:45;7.60;99.90
46490;DHT22;32204;49.160;8.580;2024-02-28T09:40:11;7.70;1.00
46490;DHT22;32204;49.160;8.580;2024-02-28T09:42:37;7.70;36.30
46490;DHT22;32204;49.160;8.580;2024-02-28T09:45:04;8.00;1.00
46490;DHT22;32204;49.160;8.580;2024-02-28T09:47:30;8.10;99.90
46490;DHT22;32204;49.160;8.580;2024-02-28T09:49:57;8.40;34.10
46490;DHT22;32204;49.160;8.580;2024-02-28T09:52:26;8.50;99.90
46490;DHT22;32204;49.160;8.580;2024-02-28T09:54:53;8.50;99.90
46490;DHT22;32204;49.160;8.580;2024-02-28T09:57:19;8.60;99.90
46490;DHT22;32204;49.160;8.580;2024-02-28T09:59:46;8.50;99.90
46490;DHT22;32204;49.160;8.580;2024-02-28T10:02:12;8.60;1.00
46490;DHT22;32204;49.160;8.580;2024-02-28T10:04:40;8.60;1.00
46490;DHT22;32204;49.160;8.580;2024-02-28T10:07:12;8.70;18.00
46490;DHT22;32204;49.160;8.580;2024-02-28T10:09:39;8.80;99.90
46490;DHT22;32204;49.160;8.580;2024-02-28T10:12:04;9.00;99.90
46490;DHT22;32204;49.160;8.580;2024-02-28T10:14:30;9.30;1.00
46490;DHT22;32204;49.160;8.580;2024-02-28T10:16:56;9.60;1.00
46490;DHT22;32204;49.160;8.580;2024-02-28T10:19:21;9.50;99.90
46490;DHT22;32204;49.160;8.580;2024-02-28T10:21:47;9.30;99.90
46490;DHT22;32204;49.160;8.580;2024-02-28T10:24:13;9.00;99.90
46490;DHT22;32204;49.160;8.580;2024-02-28T10:26:45;8.90;99.90
46490;DHT22;32204;49.160;8.580;2024-02-28T10:29:13;9.00;99.90
46490;DHT22;32204;49.160;8.580;2024-02-28T10:31:39;9.10;99.90
46490;DHT22;32204;49.160;8.580;2024-02-28T10:34:07;9.00;1.00
46490;DHT22;32204;49.160;8.580;2024-02-28T10:36:34;8.90;1.00
46490;DHT22;32204;49.160;8.580;2024-02-28T10:39:00;8.80;99.90
46490;DHT22;32204;49.160;8.580;2024-02-28T10:41:28;8.80;99.90
46490;DHT22;32204;49.160;8.580;2024-02-28T10:43:54;8.80;99.90
46490;DHT22;32204;49.160;8.580;2024-02-28T10:46:20;9.00;99.90
46490;DHT22;32204;49.160;8.580;2024-02-28T10:48:51;9.00;99.90
46490;DHT22;32204;49.160;8.580;2024-02-28T10:51:25;9.30;1.00
46490;DHT22;32204;49.160;8.580;2024-02-28T10:54:12;9.50;99.90
46490;DHT22;32204;49.160;8.580;2024-02-28T10:56:42;9.60;99.90
46490;DHT22;32204;49.160;8.580;2024-02-28T10:59:11;9.80;99.90
46490;DHT22;32204;49.160;8.580;2024-02-28T11:01:42;9.80;99.90
46490;DHT22;32204;49.160;8.580;2024-02-28T11:04:12;9.70;14.00
46490;DHT22;32204;49.160;8.580;2024-02-28T11:06:49;9.60;18.90
46490;DHT22;32204;49.160;8.580;2024-02-28T11:09:19;9.70;1.00
46490;DHT22;32204;49.160;8.580;2024-02-28T11:11:51;9.80;1.00
46490;DHT22;32204;49.160;8.580;2024-02-28T11:14:16;10.00;99.90
46490;DHT22;32204;49.160;8.580;2024-02-28T11:16:42;9.80;99.90
46490;DHT22;32204;49.160;8.580;2024-02-28T11:19:20;9.80;99.90
46490;DHT22;32204;49.160;8.580;2024-02-28T11:21:54;9.60;99.90
46490;DHT22;32204;49.160;8.580;2024-02-28T11:24:23;9.80;99.90
46490;DHT22;32204;49.160;8.580;2024-02-28T11:26:51;9.90;99.90
46490;DHT22;32204;49.160;8.580;2024-02-28T11:29:24;10.00;99.90
46490;DHT22;32204;49.160;8.580;2024-02-28T11:31:51;10.30;99.90
46490;DHT22;32204;49.160;8.580;2024-02-28T11:34:16;10.50;99.90
46490;DHT22;32204;49.160;8.580;2024-02-28T11:36:42;10.80;99.90
46490;DHT22;32204;49.160;8.580;2024-02-28T11:39:07;11.20;99.90
46490;DHT22;32204;49.160;8.580;2024-02-28T11:41:33;11.20;99.90
46490;DHT22;32204;49.160;8.580;2024-02-28T11:43:59;10.90;99.90
46490;DHT22;32204;49.160;8.580;2024-02-28T11:46:26;10.70;99.90
46490;DHT22;32204;49.160;8.580;2024-02-28T11:48:53;10.60;99.90
46490;DHT22;32204;49.160;8.580;2024-02-28T11:51:20;10.40;99.90
46490;DHT22;32204;49.160;8.580;2024-02-28T11:53:45;10.20;99.90
46490;DHT22;32204;49.160;8.580;2024-02-28T11:56:11;10.20;99.90
46490;DHT22;32204;49.160;8.580;2024-02-28T11:58:36;10.10;99.90
46490;DHT22;32204;49.160;8.580;2024-02-28T12:01:02;10.10;99.90
46490;DHT22;32204;49.160;8.580;2024-02-28T12:03:28;10.00;99.90
46490;DHT22;32204;49.160;8.580;2024-02-28T12:05:55;10.10;99.90
46490;DHT22;32204;49.160;8.580;2024-02-28T12:08:21;10.00;99.90
46490;DHT22;32204;49.160;8.580;2024-02-28T12:10:47;10.00;99.90
46490;DHT22;32204;49.160;8.580;2024-02-28T12:13:20;10.40;99.90
46490;DHT22;32204;49.160;8.580;2024-02-28T12:15:47;10.50;99.90
46490;DHT22;32204;49.160;8.580;2024-02-28T12:18:15;10.70;99.90
46490;DHT22;32204;49.160;8.580;2024-02-28T12:20:40;10.90;99.90
46490;DHT22;32204;49.160;8.580;2024-02-28T12:23:06;10.70;99.90
46490;DHT22;32204;49.160;8.580;2024-02-28T12:25:33;10.60;99.90
46490;DHT22;32204;49.160;8.580;2024-02-28T12:28:00;10.50;99.90
46490;DHT22;32204;49.160;8.580;2024-02-28T12:30:26;10.30;99.90
46490;DHT22;32204;49.160;8.580;2024-02-28T12:32:52;10.30;99.90
46490;DHT22;32204;49.160;8.580;2024-02-28T12:35:17;10.30;99.90
46490;DHT22;32204;49.160;8.580;2024-02-28T12:37:43;10.50;99.90
46490;DHT22;32204;49.160;8.580;2024-02-28T12:40:09;10.60;99.90
46490;DHT22;32204;49.160;8.580;2024-02-28T12:42:34;10.80;99.90
46490;DHT22;32204;49.160;8.580;2024-02-28T12:45:02;10.80;99.90
46490;DHT22;32204;49.160;8.580;2024-02-28T12:47:28;11.10;99.90
46490;DHT22;32204;49.160;8.580;2024-02-28T12:49:55;11.10;99.90
46490;DHT22;32204;49.160;8.580;2024-02-28T12:52:21;10.70;99.90
46490;DHT22;32204;49.160;8.580;2024-02-28T12:54:47;10.50;99.90
46490;DHT22;32204;49.160;8.580;2024-02-28T12:57:12;10.60;99.90
46490;DHT22;32204;49.160;8.580;2024-02-28T12:59:42;10.90;99.90
46490;DHT22;32204;49.160;8.580;2024-02-28T13:02:08;11.10;99.90
46490;DHT22;32204;49.160;8.580;2024-02-28T13:04:34;11.40;99.90
46490;DHT22;32204;49.160;8.580;2024-02-28T13:07:00;11.30;81.20
46490;DHT22;32204;49.160;8.580;2024-02-28T13:09:25;11.30;57.30
46490;DHT22;32204;49.160;8.580;2024-02-28T13:11:51;11.30;99.90
46490;DHT22;32204;49.160;8.580;2024-02-28T13:14:17;11.40;52.60
46490;DHT22;32204;49.160;8.580;2024-02-28T13:16:43;11.20;50.10
46490;DHT22;32204;49.160;8.580;2024-02-28T13:19:09;11.00;37.40
46490;DHT22;32204;49.160;8.580;2024-02-28T13:21:35;11.00;58.40
46490;DHT22;32204;49.160;8.580;2024-02-28T13:24:01;11.20;33.40
46490;DHT22;32204;49.160;8.580;2024-02-28T13:26:27;11.20;45.50
46490;DHT22;32204;49.160;8.580;2024-02-28T13:28:52;11.00;48.20
46490;DHT22;32204;49.160;8.580;2024-02-28T13:31:18;11.20;49.80
46490;DHT22;32204;49.160;8.580;2024-02-28T13:33:43;11.30;22.10
46490;DHT22;32204;49.160;8.580;2024-02-28T13:36:09;11.20;1.00
46490;DHT22;32204;49.160;8.580;2024-02-28T13:38:35;11.30;1.00
46490;DHT22;32204;49.160;8.580;2024-02-28T13:41:00;11.30;1.00
46490;DHT22;32204;49.160;8.580;2024-02-28T13:43:26;11.40;1.00
46490;DHT22;32204;49.160;8.580;2024-02-28T13:45:52;11.50;1.00
46490;DHT22;32204;49.160;8.580;2024-02-28T13:48:22;11.60;1.00
46490;DHT22;32204;49.160;8.580;2024-02-28T13:50:49;11.50;1.00
46490;DHT22;32204;49.160;8.580;2024-02-28T13:53:15;11.60;3.10
46490;DHT22;32204;49.160;8.580;2024-02-28T13:55:42;11.70;1.00
46490;DHT22;32204;49.160;8.580;2024-02-28T13:58:11;11.70;1.00
46490;DHT22;32204;49.160;8.580;2024-02-28T14:00:40;11.80;1.00
46490;DHT22;32204;49.160;8.580;2024-02-28T14:03:06;11.90;1.00
46490;DHT22;32204;49.160;8.580;2024-02-28T14:05:32;11.90;1.00
46490;DHT22;32204;49.160;8.580;2024-02-28T14:07:57;11.80;1.00
46490;DHT22;32204;49.160;8.580;2024-02-28T14:10:24;11.50;1.00
46490;DHT22;32204;49.160;8.580;2024-02-28T14:12:50;11.40;1.00
46490;DHT22;32204;49.160;8.580;2024-02-28T14:15:20;11.70;1.00
46490;DHT22;32204;49.160;8.580;2024-02-28T14:17:46;11.60;1.00
46490;DHT22;32204;49.160;8.580;2024-02-28T14:20:12;11.70;1.00
46490;DHT22;32204;49.160;8.580;2024-02-28T14:22:38;11.90;1.00
46490;DHT22;32204;49.160;8.580;2024-02-28T14:25:14;12.00;1.00
46490;DHT22;32204;49.160;8.580;2024-02-28T14:27:42;11.90;1.00
46490;DHT22;32204;49.160;8.580;2024-02-28T14:30:08;11.90;1.00
46490;DHT22;32204;49.160;8.580;2024-02-28T14:32:38;12.00;1.00
46490;DHT22;32204;49.160;8.580;2024-02-28T14:35:05;12.10;1.00
46490;DHT22;32204;49.160;8.580;2024-02-28T14:37:31;12.30;1.00
46490;DHT22;32204;49.160;8.580;2024-02-28T14:39:59;12.30;1.00
46490;DHT22;32204;49.160;8.580;2024-02-28T14:42:25;12.50;1.00
46490;DHT22;32204;49.160;8.580;2024-02-28T14:44:51;12.60;1.00
46490;DHT22;32204;49.160;8.580;2024-02-28T14:47:21;12.80;1.00
46490;DHT22;32204;49.160;8.580;2024-02-28T14:49:47;12.70;1.00
46490;DHT22;32204;49.160;8.580;2024-02-28T14:52:13;12.80;1.00
46490;DHT22;32204;49.160;8.580;2024-02-28T14:54:39;12.60;1.00
46490;DHT22;32204;49.160;8.580;2024-02-28T14:57:06;12.10;1.00
46490;DHT22;32204;49.160;8.580;2024-02-28T14:59:32;11.90;1.00
46490;DHT22;32204;49.160;8.580;2024-02-28T15:01:59;12.00;1.00
46490;DHT22;32204;49.160;8.580;2024-02-28T15:04:25;12.20;1.00
46490;DHT22;32204;49.160;8.580;2024-02-28T15:06:51;12.40;1.00
46490;DHT22;32204;49.160;8.580;2024-02-28T15:09:20;12.30;1.00
46490;DHT22;32204;49.160;8.580;2024-02-28T15:11:48;12.50;1.00
46490;DHT22;32204;49.160;8.580;2024-02-28T15:14:13;12.50;1.00
46490;DHT22;32204;49.160;8.580;2024-02-28T15:16:40;12.60;1.00
46490;DHT22;32204;49.160;8.580;2024-02-28T15:19:05;12.70;1.00
46490;DHT22;32204;49.160;8.580;2024-02-28T15:21:31;12.50;1.00
46490;DHT22;32204;49.160;8.580;2024-02-28T15:23:56;12.40;1.00
46490;DHT22;32204;49.160;8.580;2024-02-28T15:26:22;12.40;1.00
46490;DHT22;32204;49.160;8.580;2024-02-28T15:28:48;12.60;1.00
46490;DHT22;32204;49.160;8.580;2024-02-28T15:31:13;12.70;1.00
46490;DHT22;32204;49.160;8.580;2024-02-28T15:33:39;12.70;1.00
46490;DHT22;32204;49.160;8.580;2024-02-28T15:36:05;12.70;1.00
46490;DHT22;32204;49.160;8.580;2024-02-28T15:38:30;12.60;1.00
46490;DHT22;32204;49.160;8.580;2024-02-28T15:40:56;12.50;1.00
46490;DHT22;32204;49.160;8.580;2024-02-28T15:43:22;12.50;1.00